createdAt,value
2023-04-12T02:49:40.062Z,34.17
2023-04-12T02:52:07.942Z,40.22
2023-04-12T02:54:42.326Z,39.70
2023-04-12T02:57:16.208Z,33.60
2023-04-12T02:59:46.638Z,36.30
2023-04-12T03:02:20.032Z,35.40
2023-04-12T03:04:50.775Z,33.17
2023-04-12T03:07:22.113Z,35.70
2023-04-12T03:09:51.722Z,29.83
2023-04-12T03:12:21.081Z,38.38
2023-04-12T03:15:09.287Z,33.50
2023-04-12T03:17:36.429Z,42.90
2023-04-12T03:20:07.964Z,33.28
2023-04-12T03:22:35.012Z,33.17
2023-04-12T03:25:05.850Z,39.75
2023-04-12T03:27:33.314Z,43.25
2023-04-12T03:30:00.905Z,40.20
2023-04-12T03:32:33.817Z,40.55
2023-04-12T03:35:01.197Z,37.90
2023-04-12T03:37:29.356Z,39.95
2023-04-12T03:39:57.392Z,39.10
2023-04-12T03:42:33.184Z,45.13
2023-04-12T03:45:09.907Z,35.22
2023-04-12T03:47:37.964Z,40.75
2023-04-12T03:50:11.395Z,39.95
2023-04-12T03:52:42.497Z,39.80
2023-04-12T03:55:09.712Z,39.08
2023-04-12T03:57:37.841Z,40.42
2023-04-12T04:00:08.689Z,43.10
2023-04-12T04:02:54.904Z,48.25
2023-04-12T04:05:22.567Z,40.17
2023-04-12T04:07:49.921Z,47.67
2023-04-12T04:10:17.172Z,46.25
2023-04-12T04:12:45.536Z,45.72
2023-04-12T04:15:14.323Z,41.88
2023-04-12T04:27:47.154Z,38.20
2023-04-12T04:30:18.788Z,48.80
2023-04-12T04:32:48.322Z,43.80
2023-04-12T04:35:17.365Z,46.53
2023-04-12T04:38:01.541Z,38.92
2023-04-12T04:40:29.145Z,42.80
2023-04-12T04:42:57.701Z,44.60
2023-04-12T05:47:38.494Z,25.45
2023-04-12T05:50:07.087Z,21.58
2023-04-12T05:52:34.533Z,24.70
2023-04-12T05:55:01.988Z,24.73
2023-04-12T05:57:30.658Z,24.95
2023-04-12T05:59:58.468Z,25.42
2023-04-12T06:02:26.237Z,22.90
2023-04-12T06:04:55.790Z,20.10
2023-04-12T06:07:23.010Z,25.73
2023-04-12T06:09:50.154Z,22.27
2023-04-12T06:12:18.003Z,22.10
2023-04-12T06:14:45.311Z,24.42
2023-04-12T06:17:12.643Z,18.90
2023-04-12T06:19:40.688Z,21.65
2023-04-12T06:22:07.748Z,26.83
2023-04-12T06:24:34.974Z,22.23
2023-04-12T06:27:02.019Z,22.25
2023-04-12T06:29:29.092Z,21.80
2023-04-12T06:31:56.119Z,22.95
2023-04-12T06:34:23.148Z,21.33
2023-04-12T06:36:51.258Z,21.02
2023-04-12T06:39:18.216Z,20.20
2023-04-12T06:41:47.469Z,21.35
2023-04-12T06:44:19.428Z,22.88
2023-04-12T06:46:46.671Z,21.17
2023-04-12T06:49:13.823Z,23.08
2023-04-12T06:51:41.050Z,23.88
2023-04-12T06:54:08.010Z,21.50
2023-04-12T06:56:37.350Z,23.20
2023-04-12T06:59:04.298Z,21.48
2023-04-12T07:01:31.582Z,20.38
2023-04-12T07:03:58.775Z,19.67
2023-04-12T07:06:26.366Z,20.80
2023-04-12T07:08:53.712Z,20.30
2023-04-12T07:11:23.003Z,16.92
2023-04-12T07:13:51.456Z,19.38
2023-04-12T07:16:18.771Z,20.23
2023-04-12T07:18:45.922Z,16.15
2023-04-12T07:21:17.619Z,21.67
2023-04-12T07:23:46.595Z,17.85
2023-04-12T07:26:13.597Z,19.45
2023-04-12T07:28:40.755Z,19.08
2023-04-12T07:31:08.064Z,17.35
2023-04-12T07:33:36.650Z,17.00
2023-04-12T07:36:04.678Z,20.42
2023-04-12T07:38:31.816Z,20.38
2023-04-12T07:40:58.890Z,17.23
2023-04-12T07:43:26.053Z,15.68
2023-04-12T07:45:55.868Z,17.75
2023-04-12T07:48:23.141Z,17.77
2023-04-12T07:50:50.723Z,18.98
2023-04-12T07:53:20.068Z,22.35
2023-04-12T07:55:47.578Z,21.02
2023-04-12T07:58:17.141Z,20.23
2023-04-12T08:00:45.246Z,18.10
2023-04-12T08:03:13.862Z,23.25
2023-04-12T08:05:41.307Z,18.25
2023-04-12T08:08:11.823Z,16.83
2023-04-12T08:10:39.869Z,23.05
2023-04-12T08:13:07.528Z,19.75
2023-04-12T08:15:34.716Z,17.45
2023-04-12T08:18:02.541Z,15.55
2023-04-12T08:20:29.914Z,15.73
2023-04-12T08:50:01.613Z,17.20
2023-04-12T08:52:28.595Z,17.02
2023-04-12T08:54:56.334Z,15.15
2023-04-12T08:57:23.315Z,18.10
2023-04-12T08:59:51.216Z,19.27
2023-04-12T09:02:18.414Z,15.50
2023-04-12T09:04:50.010Z,15.43
2023-04-12T09:07:17.492Z,15.35
2023-04-12T09:09:45.597Z,15.70
2023-04-12T09:12:13.954Z,14.65
2023-04-12T09:14:44.744Z,14.63
2023-04-12T09:17:26.163Z,14.32
2023-04-12T09:22:40.058Z,13.07
2023-04-12T09:27:51.614Z,13.35
2023-04-12T09:30:20.507Z,15.50
2023-04-12T09:32:50.791Z,18.27
2023-04-12T09:35:18.175Z,14.02
2023-04-12T09:37:45.395Z,16.55
2023-04-12T09:40:12.674Z,13.40
2023-04-12T09:42:53.711Z,14.30
2023-04-12T09:45:25.280Z,15.90
2023-04-12T09:50:30.464Z,14.65
2023-04-12T09:55:27.058Z,15.98
2023-04-12T19:21:03.564Z,23.65
2023-04-12T19:23:31.584Z,23.73
2023-04-12T19:26:00.155Z,25.48
2023-04-12T19:28:28.559Z,25.50
2023-04-12T19:30:58.356Z,23.67
2023-04-12T19:33:26.206Z,28.70
2023-04-12T19:35:56.346Z,25.88
2023-04-12T19:38:23.968Z,27.27
2023-04-12T19:40:51.929Z,27.13
2023-04-12T19:43:18.834Z,28.33
2023-04-12T19:45:46.157Z,33.38
2023-04-12T19:48:13.443Z,31.05
2023-04-12T19:50:41.675Z,28.45
2023-04-12T19:53:11.056Z,26.27
2023-04-12T19:55:40.198Z,29.10
2023-04-12T19:58:08.075Z,32.30
2023-04-12T20:00:39.159Z,27.38
2023-04-12T20:03:06.451Z,30.30
2023-04-12T20:05:33.557Z,32.35
2023-04-12T20:08:01.312Z,27.20
2023-04-12T20:10:28.474Z,28.40
2023-04-12T20:12:55.665Z,27.13
2023-04-12T20:15:23.153Z,35.08
2023-04-12T20:17:52.132Z,30.65
2023-04-12T20:20:20.414Z,31.70
2023-04-12T20:22:48.011Z,31.35
2023-04-12T20:25:15.263Z,26.40
2023-04-12T20:27:43.971Z,30.77
2023-04-12T20:30:11.410Z,28.90
2023-04-12T20:32:38.905Z,33.72
2023-04-12T20:35:07.308Z,27.67
2023-04-12T20:37:34.808Z,33.38
2023-04-12T20:40:06.247Z,29.25
2023-04-12T20:42:33.624Z,30.95
2023-04-12T20:45:01.523Z,28.83
2023-04-12T20:47:28.870Z,26.88
2023-04-12T20:49:56.831Z,28.38
2023-04-12T20:52:25.452Z,26.38
2023-04-12T20:54:53.846Z,30.63
2023-04-12T20:57:21.653Z,30.73
2023-04-12T20:59:48.722Z,28.98
2023-04-12T21:02:20.541Z,31.35
2023-04-12T21:04:47.948Z,34.05
2023-04-12T21:07:15.966Z,28.35
2023-04-12T21:09:42.970Z,34.10
2023-04-12T21:12:11.201Z,31.27
2023-04-12T21:14:38.452Z,27.40
2023-04-12T21:17:07.953Z,29.85
2023-04-12T21:19:42.062Z,31.33
2023-04-12T21:22:09.119Z,26.75
2023-04-12T21:24:38.573Z,30.30
2023-04-12T21:27:08.520Z,32.38
2023-04-12T21:29:41.059Z,29.27
2023-04-12T21:32:09.092Z,30.90
2023-04-12T21:34:37.369Z,32.08
2023-04-12T21:37:04.445Z,34.35
2023-04-12T21:39:32.338Z,34.50
2023-04-12T21:41:59.287Z,31.55
2023-04-12T21:44:26.718Z,33.10
2023-04-12T21:46:53.635Z,31.88
2023-04-12T21:49:20.574Z,35.60
2023-04-12T21:51:49.260Z,33.08
2023-04-12T21:54:16.744Z,33.80
2023-04-12T21:56:43.826Z,30.35
2023-04-12T21:59:10.876Z,32.50
2023-04-12T22:01:38.121Z,33.00
2023-04-12T22:04:05.997Z,30.73
2023-04-12T22:06:33.075Z,32.10
2023-04-12T22:09:02.033Z,34.20
2023-04-12T22:11:29.954Z,35.40
2023-04-12T22:13:57.842Z,30.92
2023-04-12T22:16:24.969Z,29.73
2023-04-12T22:18:52.809Z,30.77
2023-04-12T22:21:19.852Z,29.98
2023-04-12T22:23:46.832Z,36.45
2023-04-12T22:26:13.982Z,33.20
2023-04-12T22:28:42.625Z,35.08
2023-04-12T22:31:14.551Z,34.30
2023-04-12T22:33:42.441Z,31.20
2023-04-12T22:36:09.807Z,34.40
2023-04-12T22:38:37.825Z,28.55
2023-04-12T22:41:05.059Z,31.52
2023-04-12T22:43:42.010Z,31.60
2023-04-12T22:46:16.321Z,31.60
2023-04-12T22:48:44.561Z,34.25
2023-04-12T22:51:11.514Z,30.70
2023-04-12T22:53:38.782Z,38.15
2023-04-12T22:56:06.182Z,36.08
2023-04-12T22:58:33.131Z,36.28
2023-04-12T23:01:00.168Z,38.55
2023-04-12T23:03:28.419Z,32.47
2023-04-12T23:05:55.387Z,36.15
2023-04-12T23:08:23.073Z,33.17
2023-04-12T23:10:50.025Z,31.38
2023-04-12T23:13:16.957Z,37.25
2023-04-12T23:15:44.094Z,32.92
2023-04-12T23:18:11.335Z,34.53
2023-04-12T23:20:38.819Z,38.22
2023-04-12T23:23:05.772Z,37.25
2023-04-12T23:25:41.308Z,33.92
2023-04-12T23:28:13.976Z,37.88
2023-04-12T23:30:49.110Z,34.90
2023-04-12T23:33:21.121Z,35.25
2023-04-12T23:35:49.648Z,33.88
2023-04-12T23:38:24.484Z,31.80
2023-04-12T23:40:54.887Z,33.85
2023-04-12T23:43:22.961Z,33.80
2023-04-12T23:45:50.133Z,37.95
2023-04-12T23:48:17.200Z,35.92
2023-04-12T23:50:48.488Z,33.30
2023-04-12T23:53:16.191Z,40.28
2023-04-12T23:55:43.960Z,38.10
2023-04-12T23:58:11.340Z,41.22
